sensor_id;sensor_type;location;lat;lon;timestamp;temperature;humidity
34145;HTU21D;69555;53.014;8.886;2023-07-02T00:02:14;15.61;90.46
34145;HTU21D;69555;53.014;8.886;2023-07-02T00:04:42;15.53;90.54
34145;HTU21D;69555;53.014;8.886;2023-07-02T00:07:09;15.51;90.86
34145;HTU21D;69555;53.014;8.886;2023-07-02T00:09:36;15.52;91.20
34145;HTU21D;69555;53.014;8.886;2023-07-02T00:12:03;15.59;90.87
34145;HTU21D;69555;53.014;8.886;2023-07-02T00:14:30;15.54;90.85
34145;HTU21D;69555;53.014;8.886;2023-07-02T00:16:57;15.56;90.53
34145;HTU21D;69555;53.014;8.886;2023-07-02T00:19:24;15.52;90.49
34145;HTU21D;69555;53.014;8.886;2023-07-02T00:21:51;15.43;91.11
34145;HTU21D;69555;53.014;8.886;2023-07-02T00:24:20;15.47;91.13
34145;HTU21D;69555;53.014;8.886;2023-07-02T00:26:46;15.44;91.18
34145;HTU21D;69555;53.014;8.886;2023-07-02T00:29:13;15.48;90.63
34145;HTU21D;69555;53.014;8.886;2023-07-02T00:31:39;15.45;90.77
34145;HTU21D;69555;53.014;8.886;2023-07-02T00:34:06;15.42;91.18
34145;HTU21D;69555;53.014;8.886;2023-07-02T00:36:33;15.49;90.47
34145;HTU21D;69555;53.014;8.886;2023-07-02T00:38:59;15.58;90.31
34145;HTU21D;69555;53.014;8.886;2023-07-02T00:41:26;15.58;90.37
34145;HTU21D;69555;53.014;8.886;2023-07-02T00:43:53;15.56;90.73
34145;HTU21D;69555;53.014;8.886;2023-07-02T00:46:23;15.54;90.49
34145;HTU21D;69555;53.014;8.886;2023-07-02T00:48:52;15.63;90.08
34145;HTU21D;69555;53.014;8.886;2023-07-02T00:51:24;15.55;91.16
34145;HTU21D;69555;53.014;8.886;2023-07-02T00:53:54;15.52;90.77
34145;HTU21D;69555;53.014;8.886;2023-07-02T00:56:22;15.49;90.88
34145;HTU21D;69555;53.014;8.886;2023-07-02T00:58:50;15.58;90.12
34145;HTU21D;69555;53.014;8.886;2023-07-02T01:01:24;15.58;90.69
34145;HTU21D;69555;53.014;8.886;2023-07-02T01:04:06;15.59;90.31
34145;HTU21D;69555;53.014;8.886;2023-07-02T01:06:39;15.60;90.20
34145;HTU21D;69555;53.014;8.886;2023-07-02T01:09:07;15.56;90.44
34145;HTU21D;69555;53.014;8.886;2023-07-02T01:14:38;15.56;90.37
34145;HTU21D;69555;53.014;8.886;2023-07-02T01:17:06;15.63;90.05
34145;HTU21D;69555;53.014;8.886;2023-07-02T01:19:49;15.56;90.28
34145;HTU21D;69555;53.014;8.886;2023-07-02T01:22:26;15.59;89.87
34145;HTU21D;69555;53.014;8.886;2023-07-02T01:24:54;15.58;90.20
34145;HTU21D;69555;53.014;8.886;2023-07-02T01:27:21;15.59;90.00
34145;HTU21D;69555;53.014;8.886;2023-07-02T01:29:51;15.63;89.31
34145;HTU21D;69555;53.014;8.886;2023-07-02T01:32:18;15.61;89.57
34145;HTU21D;69555;53.014;8.886;2023-07-02T01:34:45;15.69;89.41
34145;HTU21D;69555;53.014;8.886;2023-07-02T01:37:16;15.73;89.48
34145;HTU21D;69555;53.014;8.886;2023-07-02T01:39:45;15.62;90.17
34145;HTU21D;69555;53.014;8.886;2023-07-02T01:42:18;15.58;89.53
34145;HTU21D;69555;53.014;8.886;2023-07-02T01:44:47;15.68;89.18
34145;HTU21D;69555;53.014;8.886;2023-07-02T01:47:14;15.69;88.89
34145;HTU21D;69555;53.014;8.886;2023-07-02T01:49:41;15.68;88.95
34145;HTU21D;69555;53.014;8.886;2023-07-02T01:52:08;15.81;87.98
34145;HTU21D;69555;53.014;8.886;2023-07-02T01:54:35;15.73;88.03
34145;HTU21D;69555;53.014;8.886;2023-07-02T01:57:03;15.65;88.77
34145;HTU21D;69555;53.014;8.886;2023-07-02T01:59:31;15.56;88.48
34145;HTU21D;69555;53.014;8.886;2023-07-02T02:01:57;15.61;88.28
34145;HTU21D;69555;53.014;8.886;2023-07-02T02:04:24;15.63;87.94
34145;HTU21D;69555;53.014;8.886;2023-07-02T02:06:51;15.54;87.48
34145;HTU21D;69555;53.014;8.886;2023-07-02T02:09:19;15.59;87.79
34145;HTU21D;69555;53.014;8.886;2023-07-02T02:11:49;15.54;87.34
34145;HTU21D;69555;53.014;8.886;2023-07-02T02:14:16;15.66;86.95
34145;HTU21D;69555;53.014;8.886;2023-07-02T02:16:43;15.63;86.58
34145;HTU21D;69555;53.014;8.886;2023-07-02T02:19:15;15.58;86.92
34145;HTU21D;69555;53.014;8.886;2023-07-02T02:21:42;15.42;87.26
34145;HTU21D;69555;53.014;8.886;2023-07-02T02:24:10;15.46;86.12
34145;HTU21D;69555;53.014;8.886;2023-07-02T02:26:36;15.38;86.57
34145;HTU21D;69555;53.014;8.886;2023-07-02T02:29:05;15.38;86.89
34145;HTU21D;69555;53.014;8.886;2023-07-02T02:31:32;15.38;86.45
34145;HTU21D;69555;53.014;8.886;2023-07-02T02:33:58;15.30;86.74
34145;HTU21D;69555;53.014;8.886;2023-07-02T02:36:25;15.27;87.11
34145;HTU21D;69555;53.014;8.886;2023-07-02T02:38:52;15.06;88.17
34145;HTU21D;69555;53.014;8.886;2023-07-02T02:41:18;15.24;86.67
34145;HTU21D;69555;53.014;8.886;2023-07-02T02:43:45;15.28;86.61
34145;HTU21D;69555;53.014;8.886;2023-07-02T02:46:11;15.37;86.03
34145;HTU21D;69555;53.014;8.886;2023-07-02T02:48:38;15.26;86.57
34145;HTU21D;69555;53.014;8.886;2023-07-02T02:51:05;15.27;86.60
34145;HTU21D;69555;53.014;8.886;2023-07-02T02:53:32;15.17;87.04
34145;HTU21D;69555;53.014;8.886;2023-07-02T02:55:59;15.23;86.52
34145;HTU21D;69555;53.014;8.886;2023-07-02T02:58:25;15.16;86.96
34145;HTU21D;69555;53.014;8.886;2023-07-02T03:00:54;15.29;86.77
34145;HTU21D;69555;53.014;8.886;2023-07-02T03:03:22;15.17;87.59
34145;HTU21D;69555;53.014;8.886;2023-07-02T03:05:47;15.22;87.30
34145;HTU21D;69555;53.014;8.886;2023-07-02T03:08:14;15.19;87.62
34145;HTU21D;69555;53.014;8.886;2023-07-02T03:10:41;15.22;87.47
34145;HTU21D;69555;53.014;8.886;2023-07-02T03:13:08;15.24;87.33
34145;HTU21D;69555;53.014;8.886;2023-07-02T03:15:35;15.19;87.78
34145;HTU21D;69555;53.014;8.886;2023-07-02T03:18:00;15.22;87.62
34145;HTU21D;69555;53.014;8.886;2023-07-02T03:20:27;15.25;87.73
34145;HTU21D;69555;53.014;8.886;2023-07-02T03:22:53;15.21;87.99
34145;HTU21D;69555;53.014;8.886;2023-07-02T03:25:20;15.27;87.91
34145;HTU21D;69555;53.014;8.886;2023-07-02T03:27:46;15.25;87.54
34145;HTU21D;69555;53.014;8.886;2023-07-02T03:30:13;15.23;88.02
34145;HTU21D;69555;53.014;8.886;2023-07-02T03:32:40;15.37;87.35
34145;HTU21D;69555;53.014;8.886;2023-07-02T03:35:07;15.26;87.48
34145;HTU21D;69555;53.014;8.886;2023-07-02T03:37:34;15.29;87.11
34145;HTU21D;69555;53.014;8.886;2023-07-02T03:40:00;15.21;87.55
34145;HTU21D;69555;53.014;8.886;2023-07-02T03:42:27;15.28;86.91
34145;HTU21D;69555;53.014;8.886;2023-07-02T03:44:54;15.23;87.15
34145;HTU21D;69555;53.014;8.886;2023-07-02T03:47:20;15.23;87.28
34145;HTU21D;69555;53.014;8.886;2023-07-02T03:49:48;15.19;87.88
34145;HTU21D;69555;53.014;8.886;2023-07-02T03:52:14;15.24;87.12
34145;HTU21D;69555;53.014;8.886;2023-07-02T03:54:41;15.21;87.36
34145;HTU21D;69555;53.014;8.886;2023-07-02T03:57:07;15.19;87.19
34145;HTU21D;69555;53.014;8.886;2023-07-02T03:59:34;15.30;86.47
34145;HTU21D;69555;53.014;8.886;2023-07-02T04:02:02;15.25;86.55
34145;HTU21D;69555;53.014;8.886;2023-07-02T04:04:27;15.45;85.65
34145;HTU21D;69555;53.014;8.886;2023-07-02T04:06:54;15.61;85.42
34145;HTU21D;69555;53.014;8.886;2023-07-02T04:09:20;15.49;85.93
34145;HTU21D;69555;53.014;8.886;2023-07-02T04:11:47;15.56;85.84
34145;HTU21D;69555;53.014;8.886;2023-07-02T04:14:14;15.72;85.31
34145;HTU21D;69555;53.014;8.886;2023-07-02T04:16:44;15.73;85.34
34145;HTU21D;69555;53.014;8.886;2023-07-02T04:19:11;15.66;85.87
34145;HTU21D;69555;53.014;8.886;2023-07-02T04:21:38;15.74;84.87
34145;HTU21D;69555;53.014;8.886;2023-07-02T04:24:04;15.59;85.87
34145;HTU21D;69555;53.014;8.886;2023-07-02T04:26:31;15.71;85.55
34145;HTU21D;69555;53.014;8.886;2023-07-02T04:28:57;15.99;85.27
34145;HTU21D;69555;53.014;8.886;2023-07-02T04:31:25;16.34;82.91
34145;HTU21D;69555;53.014;8.886;2023-07-02T04:33:52;16.15;83.65
34145;HTU21D;69555;53.014;8.886;2023-07-02T04:36:19;16.29;82.65
34145;HTU21D;69555;53.014;8.886;2023-07-02T04:38:46;16.24;83.32
34145;HTU21D;69555;53.014;8.886;2023-07-02T04:41:12;16.80;80.54
34145;HTU21D;69555;53.014;8.886;2023-07-02T04:43:39;18.08;74.42
34145;HTU21D;69555;53.014;8.886;2023-07-02T04:46:05;19.09;70.91
34145;HTU21D;69555;53.014;8.886;2023-07-02T04:48:33;19.47;69.43
34145;HTU21D;69555;53.014;8.886;2023-07-02T04:51:00;20.43;66.30
34145;HTU21D;69555;53.014;8.886;2023-07-02T04:53:27;20.55;65.47
34145;HTU21D;69555;53.014;8.886;2023-07-02T04:55:54;20.94;62.78
34145;HTU21D;69555;53.014;8.886;2023-07-02T04:58:20;20.94;63.79
34145;HTU21D;69555;53.014;8.886;2023-07-02T05:00:46;21.72;61.13
34145;HTU21D;69555;53.014;8.886;2023-07-02T05:03:12;22.27;57.42
34145;HTU21D;69555;53.014;8.886;2023-07-02T05:05:37;22.16;59.19
34145;HTU21D;69555;53.014;8.886;2023-07-02T05:08:04;22.22;58.56
34145;HTU21D;69555;53.014;8.886;2023-07-02T05:10:31;21.82;58.92
34145;HTU21D;69555;53.014;8.886;2023-07-02T05:12:57;21.96;57.65
34145;HTU21D;69555;53.014;8.886;2023-07-02T05:15:24;21.64;59.28
34145;HTU21D;69555;53.014;8.886;2023-07-02T05:17:51;21.67;59.83
34145;HTU21D;69555;53.014;8.886;2023-07-02T05:20:17;22.43;56.69
34145;HTU21D;69555;53.014;8.886;2023-07-02T05:22:44;24.27;52.23
34145;HTU21D;69555;53.014;8.886;2023-07-02T05:25:11;23.95;52.57
34145;HTU21D;69555;53.014;8.886;2023-07-02T05:27:37;22.94;54.75
34145;HTU21D;69555;53.014;8.886;2023-07-02T05:30:04;23.67;52.43
34145;HTU21D;69555;53.014;8.886;2023-07-02T05:32:33;24.01;51.38
34145;HTU21D;69555;53.014;8.886;2023-07-02T05:35:00;24.89;49.43
34145;HTU21D;69555;53.014;8.886;2023-07-02T05:37:27;23.17;54.13
34145;HTU21D;69555;53.014;8.886;2023-07-02T05:39:54;23.57;53.49
34145;HTU21D;69555;53.014;8.886;2023-07-02T05:42:20;23.91;52.03
34145;HTU21D;69555;53.014;8.886;2023-07-02T05:44:47;25.62;48.10
34145;HTU21D;69555;53.014;8.886;2023-07-02T05:47:13;25.20;47.90
34145;HTU21D;69555;53.014;8.886;2023-07-02T05:49:42;25.75;47.46
34145;HTU21D;69555;53.014;8.886;2023-07-02T05:52:09;26.60;44.95
34145;HTU21D;69555;53.014;8.886;2023-07-02T05:54:39;26.85;43.92
34145;HTU21D;69555;53.014;8.886;2023-07-02T05:57:06;25.47;47.76
34145;HTU21D;69555;53.014;8.886;2023-07-02T05:59:33;24.69;48.77
34145;HTU21D;69555;53.014;8.886;2023-07-02T06:01:59;24.60;49.60
34145;HTU21D;69555;53.014;8.886;2023-07-02T06:04:26;23.95;51.04
34145;HTU21D;69555;53.014;8.886;2023-07-02T06:06:53;25.51;47.64
34145;HTU21D;69555;53.014;8.886;2023-07-02T06:09:18;26.01;45.60
34145;HTU21D;69555;53.014;8.886;2023-07-02T06:11:45;26.04;45.82
34145;HTU21D;69555;53.014;8.886;2023-07-02T06:14:11;26.38;44.30
34145;HTU21D;69555;53.014;8.886;2023-07-02T06:16:37;25.94;44.54
34145;HTU21D;69555;53.014;8.886;2023-07-02T06:19:03;26.20;44.51
34145;HTU21D;69555;53.014;8.886;2023-07-02T06:21:29;25.80;45.40
34145;HTU21D;69555;53.014;8.886;2023-07-02T06:23:56;26.67;43.48
34145;HTU21D;69555;53.014;8.886;2023-07-02T06:26:22;25.05;47.18
34145;HTU21D;69555;53.014;8.886;2023-07-02T06:28:47;25.09;47.24
34145;HTU21D;69555;53.014;8.886;2023-07-02T06:31:13;24.88;48.06
34145;HTU21D;69555;53.014;8.886;2023-07-02T06:33:39;26.24;44.29
34145;HTU21D;69555;53.014;8.886;2023-07-02T06:36:05;25.03;46.45
34145;HTU21D;69555;53.014;8.886;2023-07-02T06:38:31;27.26;41.64
34145;HTU21D;69555;53.014;8.886;2023-07-02T06:40:56;25.43;44.59
34145;HTU21D;69555;53.014;8.886;2023-07-02T06:43:21;24.80;47.11
34145;HTU21D;69555;53.014;8.886;2023-07-02T06:45:47;23.96;48.51
34145;HTU21D;69555;53.014;8.886;2023-07-02T06:48:13;26.36;43.67
34145;HTU21D;69555;53.014;8.886;2023-07-02T06:50:46;26.83;42.07
34145;HTU21D;69555;53.014;8.886;2023-07-02T06:53:11;24.50;46.98
34145;HTU21D;69555;53.014;8.886;2023-07-02T06:55:37;23.57;50.36
34145;HTU21D;69555;53.014;8.886;2023-07-02T06:58:04;23.52;50.34
34145;HTU21D;69555;53.014;8.886;2023-07-02T07:00:33;21.72;55.25
34145;HTU21D;69555;53.014;8.886;2023-07-02T07:03:02;23.36;50.56
34145;HTU21D;69555;53.014;8.886;2023-07-02T07:05:29;26.04;44.66
34145;HTU21D;69555;53.014;8.886;2023-07-02T07:07:54;25.77;44.53
34145;HTU21D;69555;53.014;8.886;2023-07-02T07:10:20;27.64;40.07
34145;HTU21D;69555;53.014;8.886;2023-07-02T07:12:45;25.19;45.09
34145;HTU21D;69555;53.014;8.886;2023-07-02T07:15:10;27.20;40.73
34145;HTU21D;69555;53.014;8.886;2023-07-02T07:17:36;25.45;45.18
34145;HTU21D;69555;53.014;8.886;2023-07-02T07:20:01;25.16;45.13
34145;HTU21D;69555;53.014;8.886;2023-07-02T07:22:30;26.47;42.08
34145;HTU21D;69555;53.014;8.886;2023-07-02T07:24:55;25.12;44.53
34145;HTU21D;69555;53.014;8.886;2023-07-02T07:27:21;26.71;41.71
34145;HTU21D;69555;53.014;8.886;2023-07-02T07:29:46;26.04;42.48
34145;HTU21D;69555;53.014;8.886;2023-07-02T07:32:11;24.20;46.97
34145;HTU21D;69555;53.014;8.886;2023-07-02T07:34:37;22.01;50.97
34145;HTU21D;69555;53.014;8.886;2023-07-02T07:37:02;20.74;55.82
34145;HTU21D;69555;53.014;8.886;2023-07-02T07:39:28;20.49;57.29
34145;HTU21D;69555;53.014;8.886;2023-07-02T07:41:55;21.91;54.12
34145;HTU21D;69555;53.014;8.886;2023-07-02T07:44:21;23.89;47.07
34145;HTU21D;69555;53.014;8.886;2023-07-02T07:46:48;25.86;43.00
34145;HTU21D;69555;53.014;8.886;2023-07-02T07:49:15;22.85;47.96
34145;HTU21D;69555;53.014;8.886;2023-07-02T07:51:41;21.68;52.40
34145;HTU21D;69555;53.014;8.886;2023-07-02T07:54:08;20.62;55.75
34145;HTU21D;69555;53.014;8.886;2023-07-02T07:56:35;20.60;56.24
34145;HTU21D;69555;53.014;8.886;2023-07-02T07:59:00;21.64;53.70
34145;HTU21D;69555;53.014;8.886;2023-07-02T08:01:27;20.84;53.68
34145;HTU21D;69555;53.014;8.886;2023-07-02T08:03:54;19.47;58.09
34145;HTU21D;69555;53.014;8.886;2023-07-02T08:06:21;19.28;60.28
34145;HTU21D;69555;53.014;8.886;2023-07-02T08:08:47;20.51;57.40
34145;HTU21D;69555;53.014;8.886;2023-07-02T08:11:14;21.04;55.11
34145;HTU21D;69555;53.014;8.886;2023-07-02T08:13:41;21.22;54.42
34145;HTU21D;69555;53.014;8.886;2023-07-02T08:16:07;20.46;55.71
34145;HTU21D;69555;53.014;8.886;2023-07-02T08:18:34;19.55;57.45
34145;HTU21D;69555;53.014;8.886;2023-07-02T08:20:59;19.13;59.50
34145;HTU21D;69555;53.014;8.886;2023-07-02T08:23:25;20.63;54.88
34145;HTU21D;69555;53.014;8.886;2023-07-02T08:25:50;21.13;51.52
34145;HTU21D;69555;53.014;8.886;2023-07-02T08:28:16;22.29;49.95
34145;HTU21D;69555;53.014;8.886;2023-07-02T08:30:41;21.78;50.05
34145;HTU21D;69555;53.014;8.886;2023-07-02T08:33:06;21.88;51.88
34145;HTU21D;69555;53.014;8.886;2023-07-02T08:35:32;22.29;51.05
34145;HTU21D;69555;53.014;8.886;2023-07-02T08:37:57;22.49;50.62
34145;HTU21D;69555;53.014;8.886;2023-07-02T08:40:23;21.98;51.37
34145;HTU21D;69555;53.014;8.886;2023-07-02T08:42:48;21.33;52.50
34145;HTU21D;69555;53.014;8.886;2023-07-02T08:45:17;21.81;49.86
34145;HTU21D;69555;53.014;8.886;2023-07-02T08:47:44;21.95;48.37
34145;HTU21D;69555;53.014;8.886;2023-07-02T08:50:10;21.93;50.82
34145;HTU21D;69555;53.014;8.886;2023-07-02T08:52:36;21.51;51.46
34145;HTU21D;69555;53.014;8.886;2023-07-02T08:55:01;21.61;51.52
34145;HTU21D;69555;53.014;8.886;2023-07-02T08:57:27;21.06;54.62
34145;HTU21D;69555;53.014;8.886;2023-07-02T08:59:52;21.24;50.80
34145;HTU21D;69555;53.014;8.886;2023-07-02T09:02:18;21.15;53.89
34145;HTU21D;69555;53.014;8.886;2023-07-02T09:04:43;20.74;54.72
34145;HTU21D;69555;53.014;8.886;2023-07-02T09:07:10;20.40;53.87
34145;HTU21D;69555;53.014;8.886;2023-07-02T09:09:50;19.75;55.68
34145;HTU21D;69555;53.014;8.886;2023-07-02T09:12:25;19.20;56.77
34145;HTU21D;69555;53.014;8.886;2023-07-02T09:14:55;18.89;59.00
34145;HTU21D;69555;53.014;8.886;2023-07-02T09:17:21;18.92;57.96
34145;HTU21D;69555;53.014;8.886;2023-07-02T09:19:51;18.93;59.25
34145;HTU21D;69555;53.014;8.886;2023-07-02T09:22:16;19.11;60.94
34145;HTU21D;69555;53.014;8.886;2023-07-02T09:24:51;19.57;58.16
34145;HTU21D;69555;53.014;8.886;2023-07-02T09:27:17;19.39;59.03
34145;HTU21D;69555;53.014;8.886;2023-07-02T09:29:42;19.96;58.05
34145;HTU21D;69555;53.014;8.886;2023-07-02T09:32:07;19.77;56.86
34145;HTU21D;69555;53.014;8.886;2023-07-02T09:34:34;20.41;57.00
34145;HTU21D;69555;53.014;8.886;2023-07-02T09:37:01;20.83;56.61
34145;HTU21D;69555;53.014;8.886;2023-07-02T09:39:31;20.79;56.42
34145;HTU21D;69555;53.014;8.886;2023-07-02T09:41:58;20.59;57.21
34145;HTU21D;69555;53.014;8.886;2023-07-02T09:44:28;19.99;57.20
34145;HTU21D;69555;53.014;8.886;2023-07-02T09:47:05;19.87;57.03
34145;HTU21D;69555;53.014;8.886;2023-07-02T09:49:32;19.44;59.18
34145;HTU21D;69555;53.014;8.886;2023-07-02T09:52:07;18.95;61.85
34145;HTU21D;69555;53.014;8.886;2023-07-02T09:54:33;18.88;61.47
34145;HTU21D;69555;53.014;8.886;2023-07-02T09:56:58;19.09;62.15
34145;HTU21D;69555;53.014;8.886;2023-07-02T09:59:24;18.89;60.67
34145;HTU21D;69555;53.014;8.886;2023-07-02T10:01:50;19.33;58.41
34145;HTU21D;69555;53.014;8.886;2023-07-02T10:04:18;19.77;59.01
34145;HTU21D;69555;53.014;8.886;2023-07-02T10:06:55;20.19;55.40
34145;HTU21D;69555;53.014;8.886;2023-07-02T10:09:33;20.40;56.50
34145;HTU21D;69555;53.014;8.886;2023-07-02T10:11:59;20.74;60.03
34145;HTU21D;69555;53.014;8.886;2023-07-02T10:14:24;20.91;56.17
34145;HTU21D;69555;53.014;8.886;2023-07-02T10:16:54;21.04;53.72
34145;HTU21D;69555;53.014;8.886;2023-07-02T10:19:20;21.36;54.02
34145;HTU21D;69555;53.014;8.886;2023-07-02T10:21:46;20.89;54.39
34145;HTU21D;69555;53.014;8.886;2023-07-02T10:24:15;20.61;52.31
34145;HTU21D;69555;53.014;8.886;2023-07-02T10:26:57;21.07;52.25
34145;HTU21D;69555;53.014;8.886;2023-07-02T10:29:24;21.24;51.50
34145;HTU21D;69555;53.014;8.886;2023-07-02T10:31:58;20.41;53.72
34145;HTU21D;69555;53.014;8.886;2023-07-02T10:34:35;21.01;55.05
34145;HTU21D;69555;53.014;8.886;2023-07-02T10:37:03;21.31;53.90
34145;HTU21D;69555;53.014;8.886;2023-07-02T10:39:29;21.54;54.52
34145;HTU21D;69555;53.014;8.886;2023-07-02T10:42:09;21.50;52.65
34145;HTU21D;69555;53.014;8.886;2023-07-02T10:44:47;20.99;51.93
34145;HTU21D;69555;53.014;8.886;2023-07-02T10:47:12;20.77;52.15
34145;HTU21D;69555;53.014;8.886;2023-07-02T10:49:38;21.07;52.12
34145;HTU21D;69555;53.014;8.886;2023-07-02T10:52:04;20.74;54.39
34145;HTU21D;69555;53.014;8.886;2023-07-02T10:54:44;21.27;51.33
34145;HTU21D;69555;53.014;8.886;2023-07-02T10:57:10;21.68;54.14
34145;HTU21D;69555;53.014;8.886;2023-07-02T10:59:37;21.27;53.25
34145;HTU21D;69555;53.014;8.886;2023-07-02T11:02:02;20.80;52.94
34145;HTU21D;69555;53.014;8.886;2023-07-02T11:04:30;20.59;54.82
34145;HTU21D;69555;53.014;8.886;2023-07-02T11:06:55;20.39;56.92
34145;HTU21D;69555;53.014;8.886;2023-07-02T11:09:21;20.61;57.15
34145;HTU21D;69555;53.014;8.886;2023-07-02T11:11:59;20.89;56.93
34145;HTU21D;69555;53.014;8.886;2023-07-02T11:14:34;20.87;53.77
34145;HTU21D;69555;53.014;8.886;2023-07-02T11:17:04;20.75;54.71
34145;HTU21D;69555;53.014;8.886;2023-07-02T11:19:34;20.36;54.46
34145;HTU21D;69555;53.014;8.886;2023-07-02T11:21:59;20.60;52.78
34145;HTU21D;69555;53.014;8.886;2023-07-02T11:24:33;21.10;56.79
34145;HTU21D;69555;53.014;8.886;2023-07-02T11:27:00;21.13;53.25
34145;HTU21D;69555;53.014;8.886;2023-07-02T11:29:25;21.11;51.97
34145;HTU21D;69555;53.014;8.886;2023-07-02T11:31:51;20.81;50.18
34145;HTU21D;69555;53.014;8.886;2023-07-02T11:34:21;20.57;51.42
34145;HTU21D;69555;53.014;8.886;2023-07-02T11:36:47;20.43;52.14
34145;HTU21D;69555;53.014;8.886;2023-07-02T11:39:13;20.75;50.21
34145;HTU21D;69555;53.014;8.886;2023-07-02T11:41:42;20.79;52.17
34145;HTU21D;69555;53.014;8.886;2023-07-02T11:44:08;20.96;53.53
34145;HTU21D;69555;53.014;8.886;2023-07-02T11:46:34;21.02;52.33
34145;HTU21D;69555;53.014;8.886;2023-07-02T11:49:03;20.92;51.90
34145;HTU21D;69555;53.014;8.886;2023-07-02T11:51:36;20.51;52.33
34145;HTU21D;69555;53.014;8.886;2023-07-02T11:54:03;20.80;52.56
34145;HTU21D;69555;53.014;8.886;2023-07-02T11:56:28;20.74;51.01
34145;HTU21D;69555;53.014;8.886;2023-07-02T11:58:54;20.94;48.99
34145;HTU21D;69555;53.014;8.886;2023-07-02T12:01:19;21.46;48.66
34145;HTU21D;69555;53.014;8.886;2023-07-02T12:03:44;21.57;48.84
34145;HTU21D;69555;53.014;8.886;2023-07-02T12:06:10;21.29;49.63
34145;HTU21D;69555;53.014;8.886;2023-07-02T12:08:36;21.40;49.84
34145;HTU21D;69555;53.014;8.886;2023-07-02T12:11:01;21.43;50.98
34145;HTU21D;69555;53.014;8.886;2023-07-02T12:13:26;21.33;49.03
34145;HTU21D;69555;53.014;8.886;2023-07-02T12:15:52;21.08;52.74
34145;HTU21D;69555;53.014;8.886;2023-07-02T12:18:17;21.13;51.16
34145;HTU21D;69555;53.014;8.886;2023-07-02T12:20:43;20.76;51.55
34145;HTU21D;69555;53.014;8.886;2023-07-02T12:23:08;20.42;52.40
34145;HTU21D;69555;53.014;8.886;2023-07-02T12:25:34;20.34;52.91
34145;HTU21D;69555;53.014;8.886;2023-07-02T12:28:02;20.29;53.38
34145;HTU21D;69555;53.014;8.886;2023-07-02T12:30:27;20.02;53.27
34145;HTU21D;69555;53.014;8.886;2023-07-02T12:32:52;19.95;54.07
34145;HTU21D;69555;53.014;8.886;2023-07-02T12:35:18;19.68;54.84
34145;HTU21D;69555;53.014;8.886;2023-07-02T12:37:48;20.09;55.57
34145;HTU21D;69555;53.014;8.886;2023-07-02T12:40:14;20.00;54.13
34145;HTU21D;69555;53.014;8.886;2023-07-02T12:42:41;20.00;54.15
34145;HTU21D;69555;53.014;8.886;2023-07-02T12:45:07;20.07;53.83
34145;HTU21D;69555;53.014;8.886;2023-07-02T12:47:33;20.10;52.82
34145;HTU21D;69555;53.014;8.886;2023-07-02T12:49:59;20.25;52.69
34145;HTU21D;69555;53.014;8.886;2023-07-02T12:52:24;20.34;53.78
34145;HTU21D;69555;53.014;8.886;2023-07-02T12:54:49;20.79;54.13
34145;HTU21D;69555;53.014;8.886;2023-07-02T12:57:15;21.01;54.02
34145;HTU21D;69555;53.014;8.886;2023-07-02T12:59:40;21.21;52.26
34145;HTU21D;69555;53.014;8.886;2023-07-02T13:02:06;21.46;54.65
34145;HTU21D;69555;53.014;8.886;2023-07-02T13:04:31;21.37;50.47
34145;HTU21D;69555;53.014;8.886;2023-07-02T13:06:57;21.62;51.52
34145;HTU21D;69555;53.014;8.886;2023-07-02T13:09:22;21.25;52.17
34145;HTU21D;69555;53.014;8.886;2023-07-02T13:11:47;21.18;53.49
34145;HTU21D;69555;53.014;8.886;2023-07-02T13:14:13;21.01;53.37
34145;HTU21D;69555;53.014;8.886;2023-07-02T13:16:38;20.80;52.04
34145;HTU21D;69555;53.014;8.886;2023-07-02T13:19:04;20.59;52.30
34145;HTU21D;69555;53.014;8.886;2023-07-02T13:21:29;20.33;52.10
34145;HTU21D;69555;53.014;8.886;2023-07-02T13:23:56;20.15;52.69
34145;HTU21D;69555;53.014;8.886;2023-07-02T13:26:22;20.72;53.33
34145;HTU21D;69555;53.014;8.886;2023-07-02T13:28:49;20.66;50.67
34145;HTU21D;69555;53.014;8.886;2023-07-02T13:31:16;20.32;52.11
34145;HTU21D;69555;53.014;8.886;2023-07-02T13:33:42;20.28;53.65
34145;HTU21D;69555;53.014;8.886;2023-07-02T13:36:08;20.18;53.34
34145;HTU21D;69555;53.014;8.886;2023-07-02T13:38:33;20.48;51.30
34145;HTU21D;69555;53.014;8.886;2023-07-02T13:40:59;20.63;50.63
34145;HTU21D;69555;53.014;8.886;2023-07-02T13:43:25;20.94;48.92
34145;HTU21D;69555;53.014;8.886;2023-07-02T13:45:50;20.81;49.58
34145;HTU21D;69555;53.014;8.886;2023-07-02T13:48:16;20.85;50.02
34145;HTU21D;69555;53.014;8.886;2023-07-02T13:50:41;20.74;51.35
34145;HTU21D;69555;53.014;8.886;2023-07-02T13:53:08;20.65;51.11
34145;HTU21D;69555;53.014;8.886;2023-07-02T13:55:33;20.55;50.45
34145;HTU21D;69555;53.014;8.886;2023-07-02T13:57:59;20.74;51.06
34145;HTU21D;69555;53.014;8.886;2023-07-02T14:00:26;21.18;51.03
34145;HTU21D;69555;53.014;8.886;2023-07-02T14:02:51;21.83;50.50
34145;HTU21D;69555;53.014;8.886;2023-07-02T14:05:17;21.53;49.62
34145;HTU21D;69555;53.014;8.886;2023-07-02T14:07:42;21.18;51.15
34145;HTU21D;69555;53.014;8.886;2023-07-02T14:10:08;20.72;52.27
34145;HTU21D;69555;53.014;8.886;2023-07-02T14:12:34;20.92;52.28
34145;HTU21D;69555;53.014;8.886;2023-07-02T14:14:59;21.29;51.34
34145;HTU21D;69555;53.014;8.886;2023-07-02T14:17:24;21.25;48.86
34145;HTU21D;69555;53.014;8.886;2023-07-02T14:19:50;20.94;49.72
34145;HTU21D;69555;53.014;8.886;2023-07-02T14:22:15;20.65;50.19
34145;HTU21D;69555;53.014;8.886;2023-07-02T14:24:41;20.60;50.63
34145;HTU21D;69555;53.014;8.886;2023-07-02T14:27:06;20.70;49.57
34145;HTU21D;69555;53.014;8.886;2023-07-02T14:29:32;20.80;50.66
34145;HTU21D;69555;53.014;8.886;2023-07-02T14:31:57;20.76;49.69
34145;HTU21D;69555;53.014;8.886;2023-07-02T14:34:23;20.72;51.14
34145;HTU21D;69555;53.014;8.886;2023-07-02T14:36:48;20.69;52.16
34145;HTU21D;69555;53.014;8.886;2023-07-02T14:39:14;20.79;50.64
34145;HTU21D;69555;53.014;8.886;2023-07-02T14:41:39;20.68;50.56
34145;HTU21D;69555;53.014;8.886;2023-07-02T14:44:05;20.72;52.01
34145;HTU21D;69555;53.014;8.886;2023-07-02T14:46:31;21.05;52.42
34145;HTU21D;69555;53.014;8.886;2023-07-02T14:48:57;21.38;50.54
34145;HTU21D;69555;53.014;8.886;2023-07-02T14:51:22;21.40;50.50
34145;HTU21D;69555;53.014;8.886;2023-07-02T14:53:48;20.91;50.38
34145;HTU21D;69555;53.014;8.886;2023-07-02T14:56:13;20.73;51.21
34145;HTU21D;69555;53.014;8.886;2023-07-02T14:58:39;20.37;51.93
34145;HTU21D;69555;53.014;8.886;2023-07-02T15:01:04;20.49;52.55
34145;HTU21D;69555;53.014;8.886;2023-07-02T15:03:30;20.91;51.26
34145;HTU21D;69555;53.014;8.886;2023-07-02T15:06:06;20.85;49.28
34145;HTU21D;69555;53.014;8.886;2023-07-02T15:08:32;20.73;49.34
34145;HTU21D;69555;53.014;8.886;2023-07-02T15:10:59;20.51;51.44
34145;HTU21D;69555;53.014;8.886;2023-07-02T15:13:24;20.40;51.23
34145;HTU21D;69555;53.014;8.886;2023-07-02T15:15:50;20.45;50.01
34145;HTU21D;69555;53.014;8.886;2023-07-02T15:18:19;20.65;50.72